Latest Weather Observations for Roseworthy

IDS60901

Issued at 9:45 am CST Saturday 2 August 2014 (issued every 10 minutes, with the page automatically refreshed every 10 minutes)

About weather observations | Map of Adelaide area stations | Latest observations for Adelaide area | Other Formats
Station Details ID: 023122 Name: ROSEWORTHY AWS Lat: -34.51 Lon: 138.68 Height: 65.0 m
Data from the previous 72 hours. | See also: Recent months at Roseworthy
Date/Time
CST
Tmp

°C
App
Tmp
°C
Dew
Point
°C
Rel
Hum
%
Delta-T

°C
Wind Press
QNH
hPa
Press
MSL
hPa
Rain
since
9 am
mm
Dir
 
Spd
km/h
Gust
km/h
Spd
kts
Gust
kts
02/09:30am 7.9 4.3 4.8 81 1.4 NE 13 15 7 8 1032.4 - 0.0
02/09:00am 5.7 1.7 3.0 83 1.1 ENE 13 15 7 8 1032.2 1032.4 0.2
02/08:30am 4.6 0.9 2.6 87 0.8 ENE 11 15 6 8 1031.8 - 0.2
02/08:00am 2.1 -1.9 0.6 90 0.6 NE 11 13 6 7 1031.4 - 0.2
02/07:30am 0.7 -3.1 -0.6 91 0.5 E 9 11 5 6 1031.1 - 0.2
02/07:00am 0.7 -3.5 -0.7 90 0.5 NE 11 15 6 8 1030.7 - 0.2
02/06:30am 1.2 -3.7 -0.3 90 0.5 NE 15 17 8 9 1030.4 - 0.2
02/06:00am 0.8 -3.7 -0.3 92 0.4 ENE 13 17 7 9 1030.2 1030.4 0.2
02/05:30am 0.0 -4.3 -1.3 91 0.5 NE 11 11 6 6 1030.0 - 0.2
02/05:00am 0.4 -2.1 -0.9 91 0.5 ENE 2 7 1 4 1029.8 - 0.2
02/04:30am 0.8 -3.8 -0.8 89 0.6 NNE 13 13 7 7 1029.6 - 0.2
02/04:00am 1.4 -3.4 -0.1 90 0.5 NNE 15 17 8 9 1029.5 - 0.2
02/03:30am 1.1 -3.0 -0.4 90 0.5 NE 11 15 6 8 1029.5 - 0.2
02/03:00am 1.5 -3.3 0.0 90 0.5 NE 15 15 8 8 1029.3 1029.5 0.2
02/02:30am 1.5 -3.3 0.0 90 0.5 NE 15 17 8 9 1029.3 - 0.2
02/02:00am 0.7 -3.8 -0.6 91 0.5 NE 13 15 7 8 1029.2 - 0.2
02/01:30am 0.5 -4.0 -0.6 92 0.4 NE 13 15 7 8 1028.9 - 0.2
02/01:00am 0.1 -4.5 -1.0 92 0.4 NE 13 13 7 7 1028.7 - 0.2
02/12:30am -0.1 -4.0 -1.4 91 0.4 NE 9 11 5 6 1028.7 - 0.2
02/12:00am 0.3 -3.1 -0.8 92 0.4 NE 7 11 4 6 1028.7 1028.9 0.2
 
Date/Time
CST
Tmp

°C
App
Tmp
°C
Dew
Point
°C
Rel
Hum
%
Delta-T

°C
Wind Press
QNH
hPa
Press
MSL
hPa
Rain
since
9 am
mm
Dir
 
Spd
km/h
Gust
km/h
Spd
kts
Gust
kts
01/11:30pm 0.3 -3.9 -1.0 91 0.5 NNE 11 13 6 7 1028.5 - 0.2
01/11:00pm 0.5 -4.1 -0.8 91 0.5 ENE 13 15 7 8 1028.4 - 0.2
01/10:30pm 0.2 -4.0 -1.1 91 0.5 NE 11 13 6 7 1028.2 - 0.2
01/10:00pm 0.4 -2.5 -1.0 90 0.5 E 4 11 2 6 1028.1 - 0.2
01/09:30pm 0.8 -3.3 -0.5 91 0.5 NE 11 11 6 6 1027.7 - 0.2
01/09:00pm 0.9 -3.2 -0.4 91 0.5 NE 11 11 6 6 1027.5 1027.7 0.2
01/08:30pm 0.9 -2.5 -0.5 90 0.5 N 7 7 4 4 1027.2 - 0.2
01/08:00pm 1.6 -0.4 0.0 89 0.6 CALM 0 0 0 0 1026.9 - 0.2
01/07:30pm 1.7 -0.3 -0.1 88 0.7 CALM 0 0 0 0 1026.5 - 0.2
01/07:00pm 2.5 0.5 0.1 84 0.9 CALM 0 0 0 0 1026.0 - 0.2
01/06:30pm 5.9 3.4 1.8 75 1.7 S 4 7 2 4 1025.5 - 0.2
01/06:00pm 6.9 3.2 2.2 72 1.9 S 11 13 6 7 1025.0 1025.1 0.2
01/05:30pm 8.0 3.6 2.5 68 2.3 SSW 15 19 8 10 1024.4 - 0.2
01/05:00pm 9.8 4.2 1.5 56 3.5 SW 20 26 11 14 1023.9 - 0.2
01/04:30pm 10.8 5.2 3.4 60 3.3 SSW 22 33 12 18 1023.3 - 0.2
01/04:00pm 10.9 5.3 3.2 59 3.4 SW 22 32 12 17 1022.7 - 0.2
01/03:30pm 11.4 4.3 3.7 59 3.4 SW 30 46 16 25 1022.1 - 0.2
01/03:00pm 10.8 3.7 3.8 62 3.1 SW 30 44 16 24 1021.6 1021.8 0.2
01/02:35pm 11.9 5.3 4.4 60 3.4 SW 28 48 15 26 1021.4 - 0.2
01/02:30pm 12.0 5.8 4.5 60 3.4 SW 26 39 14 21 1021.5 - 0.2
01/02:00pm 11.4 4.3 5.5 67 2.7 SW 32 44 17 24 1021.1 - 0.2
01/01:30pm 11.3 3.8 4.7 64 3.0 SW 33 54 18 29 1020.6 - 0.2
01/01:01pm 11.2 3.6 4.0 61 3.2 SW 33 52 18 28 1020.2 - 0.2
01/01:00pm 11.3 3.4 4.1 61 3.2 SW 35 52 19 28 1020.3 - 0.2
01/12:34pm 10.9 4.2 3.9 62 3.1 SW 28 46 15 25 1020.3 - 0.2
01/12:30pm 10.9 4.9 5.4 69 2.5 SW 26 35 14 19 1020.3 - 0.2
01/12:01pm 11.0 2.1 2.8 57 3.6 SW 39 57 21 31 1019.9 - 0.2
01/12:00pm 11.3 2.4 3.1 57 3.6 SW 39 56 21 30 1019.9 1020.1 0.2
01/11:42am 11.4 3.5 4.2 61 3.2 SW 35 54 19 29 1019.6 - 0.2
01/11:30am 11.2 3.3 4.4 63 3.1 SW 35 52 19 28 1019.6 - 0.2
01/11:00am 10.9 2.6 4.1 63 3.0 SW 37 52 20 28 1019.4 - 0.2
01/10:43am 10.8 3.4 4.0 63 3.0 SW 32 50 17 27 1019.1 - 0.2
01/10:30am 10.7 3.4 4.6 66 2.8 SW 32 44 17 24 1019.0 - 0.2
01/10:18am 10.6 3.6 3.9 63 3.0 SW 30 48 16 26 1018.8 - 0.2
01/10:00am 10.3 3.7 4.0 65 2.8 SW 28 39 15 21 1018.4 - 0.2
01/09:30am 9.9 2.5 4.1 67 2.6 SW 32 46 17 25 1017.8 - 0.2
01/09:03am 9.6 3.0 4.0 68 2.5 WSW 28 48 15 26 1016.8 - 0.2
01/09:00am 9.5 3.4 4.7 72 2.1 WSW 26 37 14 20 1016.7 1016.9 11.0
01/08:30am 7.4 1.6 4.5 82 1.3 SW 24 35 13 19 1016.2 - 11.0
01/08:15am 7.5 0.9 4.1 79 1.5 WSW 28 52 15 28 1016.0 - 11.0
01/08:00am 8.0 2.2 4.4 78 1.6 W 24 30 13 16 1015.3 - 10.0
01/07:30am 7.5 1.3 4.3 80 1.4 W 26 32 14 17 1014.8 - 10.0
01/07:00am 7.6 1.4 4.4 80 1.4 W 26 35 14 19 1014.3 - 10.0
01/06:30am 6.9 0.2 3.5 79 1.4 W 28 37 15 20 1013.8 - 10.0
01/06:00am 7.4 0.8 4.2 80 1.4 W 28 39 15 21 1013.3 1013.4 10.0
01/05:30am 7.3 0.6 3.9 79 1.5 W 28 41 15 22 1013.0 - 10.0
01/05:00am 6.9 -0.2 3.7 80 1.4 W 30 41 16 22 1012.4 - 10.0
01/04:56am 7.1 0.0 3.7 79 1.5 W 30 41 16 22 1012.4 - 10.0
01/04:30am 5.6 1.0 3.8 88 0.8 WNW 17 20 9 11 1012.4 - 10.0
01/04:00am 5.8 0.6 3.8 87 0.8 W 20 28 11 15 1012.0 - 10.0
01/03:30am 6.2 -0.4 4.2 87 0.9 W 28 39 15 21 1012.0 - 10.0
01/03:00am 6.2 -0.6 3.2 81 1.3 W 28 41 15 22 1011.7 1011.8 9.8
01/02:44am 6.2 -0.8 4.0 86 0.9 W 30 52 16 28 1012.0 - 9.8
01/02:30am 5.8 0.4 4.3 90 0.6 WNW 22 28 12 15 1011.7 - 9.6
01/02:00am 6.3 -0.7 4.0 85 1.0 W 30 37 16 20 1011.9 - 9.6
01/01:31am 6.7 0.1 4.2 84 1.1 W 28 52 15 28 1012.3 - 8.8
01/01:30am 6.7 0.4 4.0 83 1.2 W 26 52 14 28 1012.3 - 8.6
01/01:00am 7.4 0.8 4.2 80 1.4 W 28 44 15 24 1011.4 - 8.2
01/12:30am 6.9 1.1 4.6 85 1.0 WNW 24 39 13 21 1011.6 - 8.2
01/12:00am 5.9 0.9 3.7 86 0.9 NW 19 24 10 13 1011.5 1011.6 8.2
 
Date/Time
CST
Tmp

°C
App
Tmp
°C
Dew
Point
°C
Rel
Hum
%
Delta-T

°C
Wind Press
QNH
hPa
Press
MSL
hPa
Rain
since
9 am
mm
Dir
 
Spd
km/h
Gust
km/h
Spd
kts
Gust
kts
31/11:30pm 5.5 0.9 3.8 89 0.7 NW 17 20 9 11 1011.4 - 8.2
31/11:00pm 5.8 1.2 3.6 86 0.9 NW 17 20 9 11 1011.2 - 8.2
31/10:30pm 6.1 0.9 3.6 84 1.1 WNW 20 28 11 15 1011.1 - 8.2
31/10:00pm 6.0 1.4 3.7 85 1.0 WNW 17 20 9 11 1011.1 - 8.2
31/09:30pm 6.4 1.3 4.2 86 0.9 WNW 20 24 11 13 1011.1 - 8.2
31/09:00pm 7.0 1.2 4.3 83 1.2 W 24 32 13 17 1010.9 1011.0 8.2
31/08:30pm 6.8 1.7 4.3 84 1.1 W 20 26 11 14 1010.8 - 8.2
31/08:00pm 7.1 1.0 4.6 84 1.1 W 26 39 14 21 1010.5 - 8.2
31/07:30pm 7.6 2.3 5.1 84 1.1 W 22 28 12 15 1010.1 - 7.8
31/07:00pm 8.1 3.3 5.7 85 1.1 W 20 26 11 14 1009.8 - 7.8
31/06:30pm 8.4 2.9 6.0 85 1.1 WSW 24 33 13 18 1009.3 - 7.8
31/06:00pm 8.7 2.2 6.7 87 0.9 W 30 44 16 24 1009.2 1009.3 7.2
31/05:30pm 9.4 3.1 7.2 86 1.0 WSW 30 41 16 22 1008.3 - 6.8
31/05:01pm 9.8 2.3 7.9 88 0.9 W 37 56 20 30 1007.5 - 6.8
31/05:00pm 9.8 2.0 8.1 89 0.8 W 39 56 21 30 1007.5 - 6.8
31/04:50pm 10.3 -0.7 8.6 89 0.8 W 56 74 30 40 1007.3 - 6.8
31/04:49pm 10.3 3.7 8.6 89 0.8 W 33 74 18 40 1007.2 - 6.8
31/04:48pm 10.7 4.9 9.3 91 0.7 W 30 48 16 26 1007.2 - 6.8
31/04:30pm 10.5 5.0 9.1 91 0.7 W 28 39 15 21 1006.8 - 6.6
31/04:10pm 10.1 3.7 8.7 91 0.7 W 32 50 17 27 1006.7 - 6.4
31/04:00pm 9.9 2.2 8.5 91 0.7 W 39 50 21 27 1006.7 - 6.4
31/03:44pm 9.9 1.1 8.0 88 0.9 W 44 63 24 34 1006.7 - 6.0
31/03:40pm 11.3 3.6 8.7 84 1.3 W 39 54 21 29 1006.6 - 5.2
31/03:30pm 11.9 6.1 9.5 85 1.2 WNW 30 39 16 21 1006.0 - 5.0
31/03:00pm 11.2 4.8 9.3 88 1.0 WNW 33 41 18 22 1006.0 1006.2 5.0
31/02:30pm 11.0 4.8 9.9 93 0.6 W 33 46 18 25 1006.0 - 4.8
31/02:00pm 10.9 4.8 9.8 93 0.6 WSW 32 48 17 26 1005.5 - 3.6
31/01:56pm 10.8 5.0 9.6 92 0.6 SW 30 48 16 26 1005.4 - 3.2
31/01:46pm 10.9 5.6 9.7 92 0.6 SW 28 46 15 25 1005.1 - 2.2
31/01:30pm 11.9 4.2 10.3 90 0.8 W 41 52 22 28 1004.6 - 0.6
31/01:05pm 14.5 5.6 9.1 70 2.8 WNW 46 65 25 35 1004.1 - 0.0
31/01:00pm 14.7 5.4 9.1 69 2.9 WNW 48 65 26 35 1004.2 - 0.0
31/12:30pm 15.7 6.9 8.0 60 3.9 NW 44 67 24 36 1004.3 - 0.0
31/12:00pm 16.9 8.0 9.1 60 4.1 NW 46 70 25 38 1004.7 1004.9 0.0
31/11:36am 16.8 8.4 9.0 60 4.0 NW 43 61 23 33 1005.0 - 0.0
31/11:30am 16.6 7.6 8.8 60 4.0 NW 46 61 25 33 1004.9 - 0.0
31/11:16am 16.4 8.2 8.4 59 4.1 NNW 41 61 22 33 1005.2 - 0.0
31/11:00am 16.1 7.5 8.8 62 3.7 NW 44 57 24 31 1005.5 - 0.0
31/10:33am 15.7 8.5 9.1 65 3.4 NW 37 56 20 30 1005.7 - 0.0
31/10:30am 15.6 7.9 8.8 64 3.5 NW 39 56 21 30 1005.8 - 0.0
31/10:00am 14.6 7.2 8.5 67 3.1 NW 37 54 20 29 1006.4 - 0.0
31/09:55am 14.4 7.4 8.4 67 3.0 NNW 35 44 19 24 1006.4 - 0.0
31/09:30am 12.7 8.6 8.6 76 2.0 NNW 20 26 11 14 1006.8 - 0.0
31/09:00am 11.7 6.5 7.4 75 2.1 NNW 24 32 13 17 1006.9 1007.1 0.2
31/08:30am 10.9 6.4 6.8 76 1.9 NNW 20 28 11 15 1007.2 - 0.2
31/08:00am 9.9 5.5 6.4 79 1.6 N 19 24 10 13 1007.2 - 0.2
31/07:30am 9.2 4.7 5.9 80 1.5 NNW 19 22 10 12 1007.2 - 0.2
31/07:00am 9.6 4.5 6.1 79 1.6 NNW 22 28 12 15 1007.3 - 0.2
31/06:30am 9.8 4.4 6.3 79 1.6 NNW 24 30 13 16 1007.2 - 0.2
31/06:00am 9.6 5.2 6.5 81 1.5 NNW 19 26 10 14 1007.5 1007.7 0.0
31/05:30am 9.2 4.8 6.5 83 1.3 N 19 24 10 13 1007.3 - 0.0
31/05:00am 8.6 4.1 6.2 85 1.1 N 19 22 10 12 1007.3 - 0.0
31/04:30am 9.0 4.0 6.6 85 1.1 N 22 26 12 14 1007.8 - 0.0
31/04:00am 9.0 4.5 6.8 86 1.0 N 20 26 11 14 1008.3 - 0.0
31/03:30am 8.9 4.5 6.5 85 1.1 N 19 22 10 12 1008.9 - 0.0
31/03:00am 9.3 5.0 6.9 85 1.1 N 19 22 10 12 1009.4 1009.5 0.0
31/02:30am 8.8 4.9 6.9 88 0.9 N 17 20 9 11 1009.9 - 0.0
31/02:00am 8.6 4.6 6.7 88 0.9 N 17 19 9 10 1010.3 - 0.0
31/01:30am 8.8 4.9 6.9 88 0.9 N 17 20 9 11 1010.7 - 0.0
31/01:00am 8.7 4.8 7.2 90 0.7 N 17 19 9 10 1011.1 - 0.0
31/12:30am 8.5 5.0 7.0 90 0.7 N 15 17 8 9 1011.5 - 0.0
31/12:00am 9.6 5.9 7.9 89 0.8 N 17 20 9 11 1011.8 1011.9 0.0
 
Date/Time
CST
Tmp

°C
App
Tmp
°C
Dew
Point
°C
Rel
Hum
%
Delta-T

°C
Wind Press
QNH
hPa
Press
MSL
hPa
Rain
since
9 am
mm
Dir
 
Spd
km/h
Gust
km/h
Spd
kts
Gust
kts
30/11:30pm 8.9 5.4 7.4 90 0.7 N 15 17 8 9 1012.2 - 0.0
30/11:00pm 9.1 5.7 7.5 90 0.8 N 15 20 8 11 1012.7 - 0.0
30/10:30pm 9.0 6.0 7.5 90 0.7 N 13 17 7 9 1013.2 - 0.0
30/10:00pm 8.9 5.9 7.5 91 0.7 N 13 17 7 9 1013.4 - 0.0
30/09:30pm 9.5 6.2 7.9 90 0.8 N 15 17 8 9 1013.7 - 0.0
30/09:00pm 9.6 6.3 8.2 91 0.7 N 15 17 8 9 1014.0 1014.1 0.0
30/08:30pm 9.1 6.1 7.7 91 0.7 N 13 15 7 8 1014.2 - 0.0
30/08:00pm 9.1 6.1 7.7 91 0.7 N 13 17 7 9 1014.3 - 0.0
30/07:30pm 9.4 6.8 7.8 90 0.8 N 11 13 6 7 1014.4 - 0.0
30/07:00pm 10.2 7.4 8.6 90 0.8 N 13 15 7 8 1014.5 - 0.0
30/06:30pm 10.2 7.4 8.5 89 0.8 N 13 13 7 7 1014.6 - 0.0
30/06:00pm 11.7 9.2 9.6 87 1.1 NNW 13 15 7 8 1014.5 1014.7 0.0
30/05:30pm 13.0 10.7 10.5 85 1.3 NNW 13 17 7 9 1014.6 - 0.0
30/05:00pm 14.2 11.4 11.4 83 1.5 NNW 17 22 9 12 1014.7 - 0.0
30/04:30pm 15.3 12.0 11.7 79 1.9 NW 20 28 11 15 1014.7 - 0.0
30/04:00pm 15.5 12.0 12.1 80 1.9 NNW 22 30 12 16 1015.0 - 0.0
30/03:30pm 15.2 11.1 11.6 79 1.9 NNW 24 30 13 16 1015.1 - 0.0
30/03:00pm 15.4 11.4 11.8 79 2.0 NNW 24 33 13 18 1015.2 1015.4 0.0
30/02:30pm 15.3 11.3 11.9 80 1.8 NW 24 32 13 17 1015.6 - 0.0
30/02:00pm 15.6 11.7 12.0 79 2.0 NW 24 33 13 18 1015.7 - 0.0
30/01:30pm 15.8 11.1 12.0 78 2.1 NW 28 37 15 20 1016.0 - 0.0
30/01:00pm 16.2 11.2 12.2 77 2.2 NW 30 41 16 22 1016.5 - 0.0
30/12:30pm 15.8 10.7 12.0 78 2.1 NW 30 39 16 21 1016.9 - 0.0
30/12:00pm 16.5 11.2 12.5 77 2.2 NW 32 43 17 23 1017.3 1017.5 0.0
30/11:30am 15.5 10.3 11.7 78 2.1 NW 30 43 16 23 1017.9 - 0.0
30/11:00am 15.4 9.9 12.0 80 1.9 NW 32 41 17 22 1018.4 - 0.0
30/10:30am 14.5 9.7 11.5 82 1.6 NW 28 35 15 19 1018.5 - 0.0
30/10:00am 14.3 9.5 11.5 83 1.5 NW 28 39 15 21 1018.6 - 0.0

Latest Capital City Observations: Canberra | Sydney | Melbourne | Brisbane | Adelaide | Perth | Hobart | Darwin

Other Formats:

Comma delimited format used in spreadsheet applications
http://www.bom.gov.au/fwo/IDS60901/IDS60901.95671.axf

JavaScript Object Notation format (JSON) in row-major order
http://www.bom.gov.au/fwo/IDS60901/IDS60901.95671.json